Time,TemperatureF,DewpointF,PressureIn,WindDirection,WindDirectionDegrees,WindSpeedMPH,WindSpeedGustMPH,Humidity,HourlyPrecipIn,Conditions,Clouds,dailyrainin,SoftwareType,DateUTC
2013-11-23 00:01:00,45.5,43.6,29.84,North,11,0.0,0.0,93,0.00,,,0.00,Wunderground v.1.15,2013-11-23 05:01:00,
2013-11-23 00:04:00,45.5,43.6,29.84,North,11,0.0,0.0,93,0.00,,,0.00,Wunderground v.1.15,2013-11-23 05:04:00,
2013-11-23 00:06:00,45.5,43.6,29.84,North,11,0.0,0.0,93,0.00,,,0.00,Wunderground v.1.15,2013-11-23 05:06:00,
2013-11-23 00:08:00,45.4,43.5,29.84,North,11,0.0,0.0,93,0.00,,,0.00,Wunderground v.1.15,2013-11-23 05:08:00,
2013-11-23 00:13:00,45.4,43.5,29.84,North,11,0.0,0.0,93,0.00,,,0.00,Wunderground v.1.15,2013-11-23 05:13:00,
2013-11-23 00:14:00,45.4,43.5,29.84,North,11,0.0,0.0,93,0.00,,,0.00,Wunderground v.1.15,2013-11-23 05:14:00,
2013-11-23 00:16:00,45.4,43.5,29.84,North,11,0.0,0.0,93,0.00,,,0.00,Wunderground v.1.15,2013-11-23 05:16:00,
2013-11-23 00:22:00,45.4,43.5,29.83,North,11,0.0,0.0,93,0.00,,,0.00,Wunderground v.1.15,2013-11-23 05:22:00,
2013-11-23 00:27:00,45.4,43.5,29.84,North,11,0.0,0.0,93,0.00,,,0.00,Wunderground v.1.15,2013-11-23 05:27:00,
2013-11-23 00:33:00,45.4,43.5,29.83,North,11,0.0,0.0,93,0.00,,,0.00,Wunderground v.1.15,2013-11-23 05:33:00,
2013-11-23 00:39:00,45.5,43.6,29.84,North,11,0.0,0.0,93,0.00,,,0.00,Wunderground v.1.15,2013-11-23 05:39:00,
2013-11-23 00:45:00,45.5,43.6,29.84,NNE,12,0.0,0.0,93,0.00,,,0.00,Wunderground v.1.15,2013-11-23 05:45:00,
2013-11-23 00:50:00,45.6,43.7,29.84,North,11,0.0,0.0,93,0.00,,,0.00,Wunderground v.1.15,2013-11-23 05:50:00,
2013-11-23 00:56:00,45.9,44.3,29.84,NW,322,0.0,2.0,94,0.00,,,0.00,Wunderground v.1.15,2013-11-23 05:56:00,
2013-11-23 01:02:00,46.3,44.7,29.84,NW,315,1.0,4.0,94,0.00,,,0.00,Wunderground v.1.15,2013-11-23 06:02:00,
2013-11-23 01:08:00,46.7,45.1,29.84,WNW,292,2.0,5.0,94,0.00,,,0.00,Wunderground v.1.15,2013-11-23 06:08:00,
2013-11-23 01:13:00,46.9,45.3,29.84,NW,320,2.0,5.0,94,0.00,,,0.00,Wunderground v.1.15,2013-11-23 06:13:00,
2013-11-23 01:19:00,47.0,45.1,29.84,NNW,341,3.0,4.0,93,0.00,,,0.00,Wunderground v.1.15,2013-11-23 06:19:00,
2013-11-23 01:25:00,47.2,45.0,29.84,WSW,252,2.0,2.0,92,0.00,,,0.00,Wunderground v.1.15,2013-11-23 06:25:00,
2013-11-23 01:31:00,47.3,44.5,29.84,NNE,27,2.0,6.0,90,0.00,,,0.00,Wunderground v.1.15,2013-11-23 06:31:00,
2013-11-23 01:37:00,47.5,44.1,29.84,NNW,331,4.0,5.0,88,0.00,,,0.00,Wunderground v.1.15,2013-11-23 06:37:00,
2013-11-23 01:43:00,47.5,43.5,29.84,North,9,3.0,6.0,86,0.00,,,0.00,Wunderground v.1.15,2013-11-23 06:43:00,
2013-11-23 01:49:00,47.4,43.1,29.84,WNW,282,4.0,8.0,85,0.00,,,0.00,Wunderground v.1.15,2013-11-23 06:49:00,
2013-11-23 01:55:00,47.2,42.6,29.84,NNE,12,3.0,3.0,84,0.00,,,0.00,Wunderground v.1.15,2013-11-23 06:55:00,
2013-11-23 02:00:00,46.9,42.3,29.84,NNE,13,3.0,5.0,84,0.00,,,0.00,Wunderground v.1.15,2013-11-23 07:00:00,
2013-11-23 02:06:00,46.8,42.2,29.83,NNE,14,3.0,3.0,84,0.00,,,0.00,Wunderground v.1.15,2013-11-23 07:06:00,
2013-11-23 02:11:00,46.6,41.7,29.84,NE,52,3.0,5.0,83,0.00,,,0.00,Wunderground v.1.15,2013-11-23 07:11:00,
2013-11-23 02:17:00,46.5,41.6,29.85,North,360,3.0,8.0,83,0.00,,,0.00,Wunderground v.1.15,2013-11-23 07:17:00,
2013-11-23 02:23:00,46.3,41.1,29.84,WNW,288,5.0,12.0,82,0.00,,,0.00,Wunderground v.1.15,2013-11-23 07:23:00,
2013-11-23 02:28:00,46.1,40.6,29.84,North,355,4.0,8.0,81,0.00,,,0.01,Wunderground v.1.15,2013-11-23 07:28:00,
2013-11-23 02:34:00,45.8,40.0,29.84,North,350,2.0,8.0,80,0.00,,,0.01,Wunderground v.1.15,2013-11-23 07:34:00,
2013-11-23 02:40:00,45.4,39.9,29.84,NNE,19,2.0,5.0,81,0.00,,,0.01,Wunderground v.1.15,2013-11-23 07:40:00,
2013-11-23 02:46:00,44.9,39.7,29.84,NW,322,0.0,4.0,82,0.00,,,0.01,Wunderground v.1.15,2013-11-23 07:46:00,
2013-11-23 02:52:00,44.4,38.9,29.84,NE,39,0.0,4.0,81,0.00,,,0.01,Wunderground v.1.15,2013-11-23 07:52:00,
2013-11-23 02:58:00,44.0,38.5,29.84,NE,38,0.0,0.0,81,0.00,,,0.01,Wunderground v.1.15,2013-11-23 07:58:00,
2013-11-23 03:04:00,43.4,38.0,29.84,East,86,0.0,2.0,81,0.00,,,0.01,Wunderground v.1.15,2013-11-23 08:04:00,
2013-11-23 03:10:00,43.0,36.9,29.84,NNE,16,1.0,2.0,79,0.00,,,0.01,Wunderground v.1.15,2013-11-23 08:10:00,
2013-11-23 03:15:00,43.0,36.3,29.84,NNE,22,3.0,4.0,77,0.00,,,0.01,Wunderground v.1.15,2013-11-23 08:15:00,
2013-11-23 03:21:00,43.3,36.6,29.84,NE,41,5.0,6.0,77,0.00,,,0.01,Wunderground v.1.15,2013-11-23 08:21:00,
2013-11-23 03:27:00,43.2,35.8,29.84,North,355,5.0,9.0,75,0.00,,,0.01,Wunderground v.1.15,2013-11-23 08:27:00,
2013-11-23 03:33:00,43.2,35.5,29.84,North,360,5.0,9.0,74,0.00,,,0.01,Wunderground v.1.15,2013-11-23 08:33:00,
2013-11-23 03:39:00,43.0,35.6,29.85,NE,43,4.0,5.0,75,0.00,,,0.01,Wunderground v.1.15,2013-11-23 08:39:00,
2013-11-23 03:45:00,42.7,35.0,29.86,NW,311,3.0,3.0,74,0.00,,,0.01,Wunderground v.1.15,2013-11-23 08:45:00,
2013-11-23 03:50:00,42.6,35.2,29.86,WNW,301,3.0,5.0,75,0.00,,,0.01,Wunderground v.1.15,2013-11-23 08:50:00,
2013-11-23 03:56:00,42.5,34.8,29.86,NE,34,2.0,2.0,74,0.00,,,0.01,Wunderground v.1.15,2013-11-23 08:56:00,
2013-11-23 04:01:00,42.3,35.6,29.86,NW,319,2.0,2.0,77,0.00,,,0.01,Wunderground v.1.15,2013-11-23 09:01:00,
2013-11-23 04:06:00,42.1,35.1,29.86,NW,315,2.0,10.0,76,0.00,,,0.01,Wunderground v.1.15,2013-11-23 09:06:00,
2013-11-23 04:12:00,42.0,35.3,29.87,NNE,24,2.0,10.0,77,0.00,,,0.01,Wunderground v.1.15,2013-11-23 09:12:00,
2013-11-23 04:18:00,41.8,35.1,29.86,North,360,1.0,3.0,77,0.00,,,0.01,Wunderground v.1.15,2013-11-23 09:18:00,
2013-11-23 04:24:00,41.6,34.9,29.86,WNW,298,3.0,13.0,77,0.00,,,0.01,Wunderground v.1.15,2013-11-23 09:24:00,
2013-11-23 04:30:00,41.4,34.4,29.86,ENE,59,2.0,4.0,76,0.00,,,0.01,Wunderground v.1.15,2013-11-23 09:30:00,
2013-11-23 04:35:00,41.3,35.0,29.86,North,355,1.0,1.0,78,0.00,,,0.01,Wunderground v.1.15,2013-11-23 09:35:00,
2013-11-23 04:41:00,41.1,35.1,29.87,North,355,1.0,1.0,79,0.00,,,0.01,Wunderground v.1.15,2013-11-23 09:41:00,
2013-11-23 04:46:00,40.8,35.1,29.87,NNW,344,1.0,1.0,80,0.00,,,0.01,Wunderground v.1.15,2013-11-23 09:46:00,
2013-11-23 04:52:00,40.4,35.0,29.87,NW,307,1.0,6.0,81,0.00,,,0.01,Wunderground v.1.15,2013-11-23 09:52:00,
2013-11-23 04:57:00,40.3,34.0,29.87,West,274,4.0,13.0,78,0.00,,,0.01,Wunderground v.1.15,2013-11-23 09:57:00,
2013-11-23 05:03:00,40.4,34.1,29.88,NE,40,5.0,13.0,78,0.00,,,0.01,Wunderground v.1.15,2013-11-23 10:03:00,
2013-11-23 05:08:00,40.2,34.2,29.88,NNE,15,3.0,7.0,79,0.00,,,0.01,Wunderground v.1.15,2013-11-23 10:08:00,
2013-11-23 05:13:00,39.9,33.6,29.88,NE,48,2.0,7.0,78,0.00,,,0.01,Wunderground v.1.15,2013-11-23 10:13:00,
2013-11-23 05:19:00,39.6,33.6,29.88,North,355,2.0,3.0,79,0.00,,,0.01,Wunderground v.1.15,2013-11-23 10:19:00,
2013-11-23 05:25:00,39.4,33.4,29.89,NNW,342,3.0,3.0,79,0.00,,,0.01,Wunderground v.1.15,2013-11-23 10:25:00,
2013-11-23 05:30:00,39.4,33.4,29.89,NNW,329,4.0,7.0,79,0.00,,,0.01,Wunderground v.1.15,2013-11-23 10:30:00,
2013-11-23 05:36:00,39.1,33.5,29.88,NW,313,2.0,2.0,80,0.00,,,0.01,Wunderground v.1.15,2013-11-23 10:36:00,
2013-11-23 05:42:00,38.5,32.9,29.89,WNW,285,2.0,8.0,80,0.00,,,0.01,Wunderground v.1.15,2013-11-23 10:42:00,
2013-11-23 05:48:00,38.2,32.6,29.89,WNW,300,2.0,4.0,80,0.00,,,0.01,Wunderground v.1.15,2013-11-23 10:48:00,
2013-11-23 05:53:00,38.0,32.4,29.89,NE,46,2.0,5.0,80,0.00,,,0.01,Wunderground v.1.15,2013-11-23 10:53:00,
2013-11-23 05:59:00,37.7,31.8,29.89,North,355,3.0,10.0,79,0.00,,,0.01,Wunderground v.1.15,2013-11-23 10:59:00,
2013-11-23 06:04:00,37.8,31.9,29.90,NNE,19,4.0,10.0,79,0.00,,,0.01,Wunderground v.1.15,2013-11-23 11:04:00,
2013-11-23 06:10:00,37.6,31.0,29.90,NW,311,3.0,5.0,77,0.00,,,0.01,Wunderground v.1.15,2013-11-23 11:10:00,
2013-11-23 06:16:00,37.5,31.3,29.90,West,274,3.0,4.0,78,0.00,,,0.01,Wunderground v.1.15,2013-11-23 11:16:00,
2013-11-23 06:22:00,37.3,30.7,29.90,NNW,344,4.0,6.0,77,0.00,,,0.01,Wunderground v.1.15,2013-11-23 11:22:00,
2013-11-23 06:28:00,37.3,30.4,29.90,NE,51,5.0,7.0,76,0.00,,,0.01,Wunderground v.1.15,2013-11-23 11:28:00,
2013-11-23 06:33:00,37.2,30.7,29.90,NNW,340,4.0,8.0,77,0.00,,,0.01,Wunderground v.1.15,2013-11-23 11:33:00,
2013-11-23 06:39:00,37.0,30.1,29.90,East,86,5.0,7.0,76,0.00,,,0.01,Wunderground v.1.15,2013-11-23 11:39:00,
2013-11-23 06:44:00,36.9,30.0,29.90,NW,323,5.0,8.0,76,0.00,,,0.01,Wunderground v.1.15,2013-11-23 11:44:00,
2013-11-23 06:50:00,36.8,29.6,29.91,WNW,297,4.0,8.0,75,0.00,,,0.01,Wunderground v.1.15,2013-11-23 11:50:00,
2013-11-23 06:55:00,36.8,29.6,29.92,WNW,288,4.0,15.0,75,0.00,,,0.01,Wunderground v.1.15,2013-11-23 11:55:00,
2013-11-23 07:01:00,36.8,29.0,29.92,NNE,25,5.0,12.0,73,0.00,,,0.01,Wunderground v.1.15,2013-11-23 12:01:00,
2013-11-23 07:06:00,36.8,29.3,29.92,NE,44,4.0,5.0,74,0.00,,,0.01,Wunderground v.1.15,2013-11-23 12:06:00,
2013-11-23 07:12:00,36.7,29.2,29.92,NNW,331,4.0,6.0,74,0.00,,,0.01,Wunderground v.1.15,2013-11-23 12:12:00,
2013-11-23 07:17:00,36.8,29.0,29.92,NNE,24,5.0,8.0,73,0.00,,,0.01,Wunderground v.1.15,2013-11-23 12:17:00,
2013-11-23 07:23:00,36.8,29.0,29.93,North,11,5.0,8.0,73,0.00,,,0.01,Wunderground v.1.15,2013-11-23 12:23:00,
2013-11-23 07:29:00,36.8,29.3,29.93,NNE,15,3.0,9.0,74,0.00,,,0.01,Wunderground v.1.15,2013-11-23 12:29:00,
2013-11-23 07:35:00,36.8,29.3,29.93,NNE,13,2.0,2.0,74,0.00,,,0.01,Wunderground v.1.15,2013-11-23 12:35:00,
2013-11-23 07:41:00,36.8,29.3,29.94,WNW,303,3.0,7.0,74,0.00,,,0.01,Wunderground v.1.15,2013-11-23 12:41:00,
2013-11-23 07:47:00,36.9,29.1,29.94,NNE,24,5.0,7.0,73,0.00,,,0.01,Wunderground v.1.15,2013-11-23 12:47:00,
2013-11-23 07:53:00,37.0,29.1,29.93,NNE,23,5.0,9.0,73,0.00,,,0.01,Wunderground v.1.15,2013-11-23 12:53:00,
2013-11-23 07:58:00,37.0,28.5,29.94,NE,56,6.0,16.0,71,0.00,,,0.01,Wunderground v.1.15,2013-11-23 12:58:00,
2013-11-23 08:04:00,37.1,28.6,29.94,WNW,284,7.0,16.0,71,0.00,,,0.01,Wunderground v.1.15,2013-11-23 13:04:00,
2013-11-23 08:09:00,37.2,28.3,29.94,NE,39,5.0,7.0,70,0.00,,,0.01,Wunderground v.1.15,2013-11-23 13:09:00,
2013-11-23 08:15:00,37.3,28.1,29.94,WNW,289,4.0,9.0,69,0.00,,,0.01,Wunderground v.1.15,2013-11-23 13:15:00,
2013-11-23 08:20:00,37.4,28.2,29.94,NNW,346,5.0,9.0,69,0.00,,,0.01,Wunderground v.1.15,2013-11-23 13:20:00,
2013-11-23 08:26:00,37.6,28.3,29.94,NNE,21,4.0,10.0,69,0.00,,,0.01,Wunderground v.1.15,2013-11-23 13:26:00,
2013-11-23 08:32:00,37.8,28.5,29.95,WNW,298,5.0,15.0,69,0.00,,,0.01,Wunderground v.1.15,2013-11-23 13:32:00,
2013-11-23 08:38:00,38.1,28.1,29.95,WNW,294,5.0,8.0,67,0.00,,,0.01,Wunderground v.1.15,2013-11-23 13:38:00,
2013-11-23 08:44:00,38.4,28.8,29.95,NNE,32,5.0,11.0,68,0.00,,,0.01,Wunderground v.1.15,2013-11-23 13:44:00,
2013-11-23 08:49:00,38.6,28.9,29.96,North,355,3.0,7.0,68,0.00,,,0.01,Wunderground v.1.15,2013-11-23 13:49:00,
2013-11-23 08:55:00,38.8,29.1,29.96,NNW,331,4.0,7.0,68,0.00,,,0.01,Wunderground v.1.15,2013-11-23 13:55:00,
2013-11-23 09:01:00,38.8,28.4,29.96,NW,318,5.0,9.0,66,0.00,,,0.01,Wunderground v.1.15,2013-11-23 14:01:00,
2013-11-23 09:07:00,39.1,28.7,29.96,NNW,338,4.0,5.0,66,0.00,,,0.01,Wunderground v.1.15,2013-11-23 14:07:00,
2013-11-23 09:13:00,39.2,28.4,29.95,NNE,19,4.0,12.0,65,0.00,,,0.01,Wunderground v.1.15,2013-11-23 14:13:00,
2013-11-23 09:18:00,39.3,28.9,29.95,NNW,334,3.0,6.0,66,0.00,,,0.01,Wunderground v.1.15,2013-11-23 14:18:00,
2013-11-23 09:24:00,39.5,28.7,29.95,NNE,32,3.0,8.0,65,0.00,,,0.01,Wunderground v.1.15,2013-11-23 14:24:00,
2013-11-23 09:30:00,39.6,28.4,29.95,West,271,3.0,15.0,64,0.00,,,0.01,Wunderground v.1.15,2013-11-23 14:30:00,
2013-11-23 09:35:00,39.6,28.0,29.95,NE,51,5.0,5.0,63,0.00,,,0.01,Wunderground v.1.15,2013-11-23 14:35:00,
2013-11-23 09:40:00,39.6,28.0,29.95,NW,323,3.0,6.0,63,0.00,,,0.01,Wunderground v.1.15,2013-11-23 14:40:00,
2013-11-23 09:46:00,39.5,28.3,29.95,WNW,303,4.0,9.0,64,0.00,,,0.01,Wunderground v.1.15,2013-11-23 14:46:00,
2013-11-23 09:52:00,39.7,28.9,29.96,West,275,4.0,9.0,65,0.00,,,0.01,Wunderground v.1.15,2013-11-23 14:52:00,
2013-11-23 09:58:00,39.8,29.0,29.95,NNE,22,4.0,5.0,65,0.00,,,0.01,Wunderground v.1.15,2013-11-23 14:58:00,
2013-11-23 10:04:00,39.8,28.6,29.95,WNW,284,5.0,11.0,64,0.00,,,0.01,Wunderground v.1.15,2013-11-23 15:04:00,
2013-11-23 10:11:00,40.1,28.9,29.95,NNE,12,4.0,5.0,64,0.00,,,0.01,Wunderground v.1.15,2013-11-23 15:11:00,
2013-11-23 10:16:00,40.4,28.8,29.95,NW,320,3.0,3.0,63,0.00,,,0.01,Wunderground v.1.15,2013-11-23 15:16:00,
2013-11-23 10:22:00,40.6,28.2,29.95,NNW,342,3.0,5.0,61,0.00,,,0.01,Wunderground v.1.15,2013-11-23 15:22:00,
2013-11-23 10:28:00,40.6,27.8,29.95,WNW,293,4.0,8.0,60,0.00,,,0.01,Wunderground v.1.15,2013-11-23 15:28:00,
2013-11-23 10:34:00,40.6,28.6,29.94,NNE,16,4.0,10.0,62,0.00,,,0.01,Wunderground v.1.15,2013-11-23 15:34:00,
2013-11-23 10:39:00,40.8,28.8,29.94,SW,227,4.0,5.0,62,0.00,,,0.01,Wunderground v.1.15,2013-11-23 15:39:00,
2013-11-23 10:47:00,41.2,29.2,29.94,NNE,19,3.0,3.0,62,0.00,,,0.01,Wunderground v.1.15,2013-11-23 15:47:00,
2013-11-23 10:52:00,41.1,27.0,29.94,NW,317,4.0,12.0,57,0.00,,,0.01,Wunderground v.1.15,2013-11-23 15:52:00,
2013-11-23 10:58:00,41.1,26.6,29.93,WNW,287,5.0,5.0,56,0.00,,,0.01,Wunderground v.1.15,2013-11-23 15:58:00,
2013-11-23 11:04:00,41.0,25.6,29.93,WSW,242,5.0,12.0,54,0.00,,,0.01,Wunderground v.1.15,2013-11-23 16:04:00,
2013-11-23 11:09:00,41.1,25.3,29.93,NW,313,5.0,6.0,53,0.00,,,0.01,Wunderground v.1.15,2013-11-23 16:09:00,
2013-11-23 11:15:00,41.2,24.9,29.93,West,273,5.0,9.0,52,0.00,,,0.01,Wunderground v.1.15,2013-11-23 16:15:00,
2013-11-23 11:20:00,41.1,24.8,29.93,WNW,283,5.0,9.0,52,0.00,,,0.01,Wunderground v.1.15,2013-11-23 16:20:00,
2013-11-23 11:25:00,41.3,24.5,29.92,West,271,4.0,9.0,51,0.00,,,0.01,Wunderground v.1.15,2013-11-23 16:25:00,
2013-11-23 11:30:00,41.6,25.3,29.93,WNW,298,3.0,6.0,52,0.00,,,0.01,Wunderground v.1.15,2013-11-23 16:30:00,
2013-11-23 11:37:00,41.5,23.7,29.92,NW,323,4.0,7.0,49,0.00,,,0.01,Wunderground v.1.15,2013-11-23 16:37:00,
2013-11-23 11:42:00,41.7,23.9,29.92,West,271,5.0,10.0,49,0.00,,,0.01,Wunderground v.1.15,2013-11-23 16:42:00,
2013-11-23 11:47:00,41.9,22.6,29.91,NNW,344,4.0,7.0,46,0.00,,,0.01,Wunderground v.1.15,2013-11-23 16:47:00,
2013-11-23 11:53:00,42.1,22.3,29.91,NE,38,4.0,7.0,45,0.00,,,0.01,Wunderground v.1.15,2013-11-23 16:53:00,
2013-11-23 11:59:00,42.2,23.4,29.90,WNW,290,4.0,5.0,47,0.00,,,0.01,Wunderground v.1.15,2013-11-23 16:59:00,
2013-11-23 12:05:00,42.4,23.1,29.90,NNW,342,5.0,6.0,46,0.00,,,0.01,Wunderground v.1.15,2013-11-23 17:05:00,
2013-11-23 12:11:00,42.4,23.6,29.90,WNW,300,4.0,8.0,47,0.00,,,0.01,Wunderground v.1.15,2013-11-23 17:11:00,
2013-11-23 12:17:00,42.6,23.8,29.90,NE,38,4.0,8.0,47,0.00,,,0.01,Wunderground v.1.15,2013-11-23 17:17:00,
2013-11-23 12:23:00,42.5,23.7,29.90,WNW,283,3.0,8.0,47,0.00,,,0.01,Wunderground v.1.15,2013-11-23 17:23:00,
2013-11-23 12:29:00,42.7,25.8,29.89,ENE,61,4.0,8.0,51,0.00,,,0.01,Wunderground v.1.15,2013-11-23 17:29:00,
2013-11-23 12:34:00,42.9,23.0,29.89,ENE,65,3.0,8.0,45,0.00,,,0.01,Wunderground v.1.15,2013-11-23 17:34:00,
2013-11-23 12:40:00,43.1,25.2,29.89,NW,306,2.0,6.0,49,0.00,,,0.01,Wunderground v.1.15,2013-11-23 17:40:00,
2013-11-23 12:46:00,43.3,23.9,29.88,WNW,294,2.0,2.0,46,0.00,,,0.01,Wunderground v.1.15,2013-11-23 17:46:00,
2013-11-23 12:52:00,43.5,24.6,29.88,WNW,299,1.0,2.0,47,0.00,,,0.01,Wunderground v.1.15,2013-11-23 17:52:00,
2013-11-23 12:58:00,43.4,23.4,29.88,WNW,287,3.0,8.0,45,0.00,,,0.01,Wunderground v.1.15,2013-11-23 17:58:00,
2013-11-23 13:04:00,43.3,24.4,29.88,NNE,19,4.0,8.0,47,0.00,,,0.01,Wunderground v.1.15,2013-11-23 18:04:00,
2013-11-23 13:09:00,43.3,23.4,29.88,WNW,296,4.0,7.0,45,0.00,,,0.01,Wunderground v.1.15,2013-11-23 18:09:00,
2013-11-23 13:15:00,43.3,23.4,29.87,ESE,105,4.0,4.0,45,0.00,,,0.01,Wunderground v.1.15,2013-11-23 18:15:00,
2013-11-23 13:21:00,43.3,23.4,29.87,NW,309,4.0,7.0,45,0.00,,,0.01,Wunderground v.1.15,2013-11-23 18:21:00,
2013-11-23 13:27:00,43.3,24.4,29.87,NNE,27,4.0,13.0,47,0.00,,,0.01,Wunderground v.1.15,2013-11-23 18:27:00,
2013-11-23 13:33:00,43.3,22.3,29.87,NE,40,3.0,13.0,43,0.00,,,0.01,Wunderground v.1.15,2013-11-23 18:33:00,
2013-11-23 13:39:00,43.0,21.4,29.87,NNW,331,5.0,6.0,42,0.00,,,0.01,Wunderground v.1.15,2013-11-23 18:39:00,
2013-11-23 13:45:00,42.8,22.4,29.86,NE,34,4.0,6.0,44,0.00,,,0.01,Wunderground v.1.15,2013-11-23 18:45:00,
2013-11-23 13:51:00,42.7,22.3,29.86,NW,306,4.0,8.0,44,0.00,,,0.01,Wunderground v.1.15,2013-11-23 18:51:00,
2013-11-23 13:57:00,42.6,22.2,29.85,NNW,334,4.0,4.0,44,0.00,,,0.01,Wunderground v.1.15,2013-11-23 18:57:00,
2013-11-23 14:03:00,42.5,21.5,29.86,WNW,297,3.0,5.0,43,0.00,,,0.01,Wunderground v.1.15,2013-11-23 19:03:00,
2013-11-23 14:09:00,42.0,21.1,29.86,NNW,346,4.0,7.0,43,0.00,,,0.01,Wunderground v.1.15,2013-11-23 19:09:00,
2013-11-23 14:14:00,41.8,22.0,29.86,NW,314,3.0,7.0,45,0.00,,,0.01,Wunderground v.1.15,2013-11-23 19:14:00,
2013-11-23 14:20:00,41.5,22.2,29.86,NE,42,3.0,8.0,46,0.00,,,0.01,Wunderground v.1.15,2013-11-23 19:20:00,
2013-11-23 14:26:00,41.5,21.7,29.86,NW,320,3.0,5.0,45,0.00,,,0.01,Wunderground v.1.15,2013-11-23 19:26:00,
2013-11-23 14:32:00,41.4,22.1,29.86,East,86,2.0,5.0,46,0.00,,,0.01,Wunderground v.1.15,2013-11-23 19:32:00,
2013-11-23 14:37:00,41.5,22.2,29.86,NE,49,2.0,2.0,46,0.00,,,0.01,Wunderground v.1.15,2013-11-23 19:37:00,
2013-11-23 14:43:00,41.4,22.1,29.86,North,355,2.0,5.0,46,0.00,,,0.01,Wunderground v.1.15,2013-11-23 19:43:00,
2013-11-23 14:49:00,41.3,23.1,29.86,NE,35,1.0,4.0,48,0.00,,,0.01,Wunderground v.1.15,2013-11-23 19:49:00,
2013-11-23 14:55:00,41.0,23.8,29.86,NNW,337,2.0,2.0,50,0.00,,,0.01,Wunderground v.1.15,2013-11-23 19:55:00,
2013-11-23 15:00:00,40.9,22.7,29.86,NNW,346,2.0,2.0,48,0.00,,,0.01,Wunderground v.1.15,2013-11-23 20:00:00,
2013-11-23 15:06:00,40.6,22.4,29.85,NNW,330,2.0,2.0,48,0.00,,,0.01,Wunderground v.1.15,2013-11-23 20:06:00,
2013-11-23 15:11:00,40.2,24.4,29.85,NNW,337,1.0,2.0,53,0.00,,,0.01,Wunderground v.1.15,2013-11-23 20:11:00,
2013-11-23 15:17:00,39.9,23.2,29.85,ENE,61,1.0,2.0,51,0.00,,,0.01,Wunderground v.1.15,2013-11-23 20:17:00,
2013-11-23 15:23:00,39.7,23.5,29.85,NE,46,1.0,2.0,52,0.00,,,0.01,Wunderground v.1.15,2013-11-23 20:23:00,
2013-11-23 15:29:00,39.5,23.8,29.85,NE,49,1.0,2.0,53,0.00,,,0.01,Wunderground v.1.15,2013-11-23 20:29:00,
2013-11-23 15:34:00,39.4,23.2,29.84,NW,317,1.0,2.0,52,0.00,,,0.01,Wunderground v.1.15,2013-11-23 20:34:00,
2013-11-23 15:40:00,39.3,24.0,29.84,NW,324,1.0,3.0,54,0.00,,,0.01,Wunderground v.1.15,2013-11-23 20:40:00,
2013-11-23 15:46:00,39.1,23.8,29.84,NW,324,0.0,0.0,54,0.00,,,0.01,Wunderground v.1.15,2013-11-23 20:46:00,
2013-11-23 15:51:00,38.8,24.9,29.84,NW,315,0.0,0.0,57,0.00,,,0.01,Wunderground v.1.15,2013-11-23 20:51:00,
2013-11-23 15:57:00,38.5,25.0,29.84,NW,317,0.0,2.0,58,0.00,,,0.01,Wunderground v.1.15,2013-11-23 20:57:00,
2013-11-23 16:03:00,38.2,24.7,29.84,NW,317,0.0,2.0,58,0.00,,,0.01,Wunderground v.1.15,2013-11-23 21:03:00,
2013-11-23 16:09:00,37.8,25.9,29.84,NW,317,0.0,0.0,62,0.00,,,0.01,Wunderground v.1.15,2013-11-23 21:09:00,
2013-11-23 16:15:00,37.4,26.7,29.84,NW,317,0.0,0.0,65,0.00,,,0.01,Wunderground v.1.15,2013-11-23 21:15:00,
2013-11-23 16:21:00,36.8,26.1,29.84,NW,318,0.0,0.0,65,0.00,,,0.01,Wunderground v.1.15,2013-11-23 21:21:00,
2013-11-23 16:26:00,36.4,25.4,29.84,NW,318,0.0,0.0,64,0.00,,,0.01,Wunderground v.1.15,2013-11-23 21:26:00,
2013-11-23 16:32:00,35.9,24.9,29.83,NW,318,0.0,2.0,64,0.00,,,0.01,Wunderground v.1.15,2013-11-23 21:32:00,
2013-11-23 16:38:00,35.6,25.4,29.83,NW,318,0.0,0.0,66,0.00,,,0.01,Wunderground v.1.15,2013-11-23 21:38:00,
2013-11-23 16:43:00,35.3,26.1,29.84,NW,318,0.0,0.0,69,0.00,,,0.01,Wunderground v.1.15,2013-11-23 21:43:00,
2013-11-23 16:49:00,34.9,25.4,29.83,NW,318,0.0,0.0,68,0.00,,,0.01,Wunderground v.1.15,2013-11-23 21:49:00,
2013-11-23 16:55:00,34.6,26.2,29.83,NW,318,0.0,0.0,71,0.00,,,0.01,Wunderground v.1.15,2013-11-23 21:55:00,
2013-11-23 17:02:00,34.3,26.5,29.83,NW,318,0.0,0.0,73,0.00,,,0.01,Wunderground v.1.15,2013-11-23 22:02:00,
2013-11-23 17:07:00,34.0,26.3,29.84,NW,318,0.0,0.0,73,0.00,,,0.01,Wunderground v.1.15,2013-11-23 22:07:00,
2013-11-23 17:13:00,33.8,25.4,29.84,NW,318,0.0,0.0,71,0.00,,,0.01,Wunderground v.1.15,2013-11-23 22:13:00,
2013-11-23 17:19:00,33.5,25.8,29.84,NW,318,0.0,0.0,73,0.00,,,0.01,Wunderground v.1.15,2013-11-23 22:19:00,
2013-11-23 17:25:00,33.3,25.9,29.84,NW,318,0.0,0.0,74,0.00,,,0.01,Wunderground v.1.15,2013-11-23 22:25:00,
2013-11-23 17:31:00,33.2,26.8,29.84,NW,318,0.0,0.0,77,0.00,,,0.01,Wunderground v.1.15,2013-11-23 22:31:00,
2013-11-23 17:37:00,33.0,26.9,29.84,NW,318,0.0,0.0,78,0.00,,,0.01,Wunderground v.1.15,2013-11-23 22:37:00,
2013-11-23 17:43:00,32.9,26.8,29.83,NW,318,0.0,0.0,78,0.00,,,0.01,Wunderground v.1.15,2013-11-23 22:43:00,
2013-11-23 17:48:00,32.7,26.0,29.83,NW,318,0.0,0.0,76,0.00,,,0.01,Wunderground v.1.15,2013-11-23 22:48:00,
2013-11-23 17:54:00,32.6,25.9,29.83,NW,318,0.0,0.0,76,0.00,,,0.01,Wunderground v.1.15,2013-11-23 22:54:00,
2013-11-23 18:01:00,32.4,26.3,29.83,NW,318,0.0,0.0,78,0.00,,,0.01,Wunderground v.1.15,2013-11-23 23:01:00,
2013-11-23 18:06:00,32.2,26.4,29.84,NW,318,0.0,0.0,79,0.00,,,0.01,Wunderground v.1.15,2013-11-23 23:06:00,
2013-11-23 18:10:00,32.0,25.9,29.83,NW,318,0.0,0.0,78,0.00,,,0.01,Wunderground v.1.15,2013-11-23 23:10:00,
2013-11-23 18:15:00,31.9,25.5,29.84,NW,318,0.0,0.0,77,0.00,,,0.01,Wunderground v.1.15,2013-11-23 23:15:00,
2013-11-23 18:21:00,31.8,25.7,29.83,NW,318,0.0,0.0,78,0.00,,,0.01,Wunderground v.1.15,2013-11-23 23:21:00,
2013-11-23 18:27:00,31.7,25.3,29.84,NW,318,0.0,0.0,77,0.00,,,0.01,Wunderground v.1.15,2013-11-23 23:27:00,
2013-11-23 18:33:00,31.7,25.3,29.84,NW,318,0.0,0.0,77,0.00,,,0.01,Wunderground v.1.15,2013-11-23 23:33:00,
2013-11-23 18:38:00,32.1,26.0,29.84,NW,323,0.0,4.0,78,0.00,,,0.01,Wunderground v.1.15,2013-11-23 23:38:00,
2013-11-23 18:44:00,33.0,25.6,29.84,NNE,19,2.0,11.0,74,0.00,,,0.01,Wunderground v.1.15,2013-11-23 23:44:00,
2013-11-23 18:50:00,34.3,25.2,29.85,ESE,105,3.0,12.0,69,0.00,,,0.01,Wunderground v.1.15,2013-11-23 23:50:00,
2013-11-23 18:55:00,34.8,27.0,29.85,North,9,4.0,12.0,73,0.00,,,0.01,Wunderground v.1.15,2013-11-23 23:55:00,
2013-11-23 19:01:00,34.6,26.8,29.86,North,350,3.0,4.0,73,0.00,,,0.01,Wunderground v.1.15,2013-11-24 00:01:00,
2013-11-23 19:06:00,34.6,27.2,29.86,NW,315,2.0,7.0,74,0.00,,,0.01,Wunderground v.1.15,2013-11-24 00:06:00,
2013-11-23 19:12:00,34.5,27.1,29.86,NW,315,4.0,7.0,74,0.00,,,0.01,Wunderground v.1.15,2013-11-24 00:12:00,
2013-11-23 19:18:00,34.2,27.4,29.86,NNE,27,6.0,6.0,76,0.00,,,0.01,Wunderground v.1.15,2013-11-24 00:18:00,
2013-11-23 19:24:00,33.1,28.5,29.86,NW,317,7.0,12.0,83,0.00,,,0.01,Wunderground v.1.15,2013-11-24 00:24:00,
2013-11-23 19:30:00,32.0,28.3,29.85,South,171,4.0,7.0,86,0.00,,,0.01,Wunderground v.1.15,2013-11-24 00:30:00,
2013-11-23 19:36:00,31.7,27.7,29.85,SSE,163,3.0,3.0,85,0.00,,,0.01,Wunderground v.1.15,2013-11-24 00:36:00,
2013-11-23 19:41:00,31.8,27.2,29.85,SW,236,2.0,7.0,83,0.00,,,0.01,Wunderground v.1.15,2013-11-24 00:41:00,
2013-11-23 19:47:00,32.1,26.9,29.85,West,273,3.0,3.0,81,0.00,,,0.01,Wunderground v.1.15,2013-11-24 00:47:00,
2013-11-23 19:53:00,32.4,26.6,29.85,SSW,205,2.0,7.0,79,0.00,,,0.01,Wunderground v.1.15,2013-11-24 00:53:00,
2013-11-23 19:59:00,32.7,26.6,29.86,North,360,2.0,2.0,78,0.00,,,0.01,Wunderground v.1.15,2013-11-24 00:59:00,
2013-11-23 20:04:00,33.0,26.9,29.86,NW,323,1.0,6.0,78,0.00,,,0.01,Wunderground v.1.15,2013-11-24 01:04:00,
2013-11-23 20:10:00,33.1,25.7,29.86,WNW,282,3.0,7.0,74,0.00,,,0.01,Wunderground v.1.15,2013-11-24 01:10:00,
2013-11-23 20:16:00,33.2,26.5,29.86,WNW,287,2.0,3.0,76,0.00,,,0.01,Wunderground v.1.15,2013-11-24 01:16:00,
2013-11-23 20:22:00,33.0,25.6,29.86,WNW,300,1.0,11.0,74,0.00,,,0.01,Wunderground v.1.15,2013-11-24 01:22:00,
2013-11-23 20:28:00,32.9,25.2,29.85,WNW,303,2.0,4.0,73,0.00,,,0.01,Wunderground v.1.15,2013-11-24 01:28:00,
2013-11-23 20:34:00,32.8,24.4,29.85,NE,46,2.0,6.0,71,0.00,,,0.01,Wunderground v.1.15,2013-11-24 01:34:00,
2013-11-23 20:39:00,32.7,24.3,29.85,NE,44,3.0,8.0,71,0.00,,,0.01,Wunderground v.1.15,2013-11-24 01:39:00,
2013-11-23 20:45:00,32.6,23.9,29.85,NNW,342,3.0,3.0,70,0.00,,,0.01,Wunderground v.1.15,2013-11-24 01:45:00,
2013-11-23 20:50:00,32.4,23.4,29.85,SW,231,4.0,5.0,69,0.00,,,0.01,Wunderground v.1.15,2013-11-24 01:50:00,
2013-11-23 20:56:00,32.2,23.5,29.85,NNW,327,3.0,4.0,70,0.00,,,0.01,Wunderground v.1.15,2013-11-24 01:56:00,
2013-11-23 21:02:00,32.0,23.0,29.86,WSW,253,2.0,5.0,69,0.00,,,0.01,Wunderground v.1.15,2013-11-24 02:02:00,
2013-11-23 21:08:00,31.8,22.4,29.86,NNW,343,2.0,6.0,68,0.00,,,0.01,Wunderground v.1.15,2013-11-24 02:08:00,
2013-11-23 21:14:00,31.6,22.2,29.86,NNE,27,2.0,12.0,68,0.00,,,0.01,Wunderground v.1.15,2013-11-24 02:14:00,
2013-11-23 21:20:00,31.6,21.9,29.86,North,355,3.0,6.0,67,0.00,,,0.01,Wunderground v.1.15,2013-11-24 02:20:00,
2013-11-23 21:26:00,31.6,22.2,29.86,NNW,338,3.0,4.0,68,0.00,,,0.01,Wunderground v.1.15,2013-11-24 02:26:00,
2013-11-23 21:32:00,31.5,21.8,29.86,NNE,17,3.0,7.0,67,0.00,,,0.01,Wunderground v.1.15,2013-11-24 02:32:00,
2013-11-23 21:37:00,31.4,21.7,29.87,NNE,24,4.0,5.0,67,0.00,,,0.01,Wunderground v.1.15,2013-11-24 02:37:00,
2013-11-23 21:43:00,31.3,22.0,29.86,NNW,344,3.0,5.0,68,0.00,,,0.01,Wunderground v.1.15,2013-11-24 02:43:00,
2013-11-23 21:49:00,31.0,21.3,29.86,NNW,328,3.0,6.0,67,0.00,,,0.01,Wunderground v.1.15,2013-11-24 02:49:00,
2013-11-23 21:54:00,30.7,21.0,29.86,WNW,282,3.0,6.0,67,0.00,,,0.01,Wunderground v.1.15,2013-11-24 02:54:00,
2013-11-23 22:00:00,30.4,20.4,29.86,North,9,3.0,6.0,66,0.00,,,0.01,Wunderground v.1.15,2013-11-24 03:00:00,
2013-11-23 22:05:00,30.2,20.2,29.86,NE,49,3.0,3.0,66,0.00,,,0.01,Wunderground v.1.15,2013-11-24 03:05:00,
2013-11-23 22:11:00,30.1,20.1,29.86,NNE,15,2.0,6.0,66,0.00,,,0.01,Wunderground v.1.15,2013-11-24 03:11:00,
2013-11-23 22:17:00,29.9,19.6,29.86,NNW,342,2.0,4.0,65,0.00,,,0.01,Wunderground v.1.15,2013-11-24 03:17:00,
2013-11-23 22:23:00,29.8,19.1,29.86,NE,51,4.0,6.0,64,0.00,,,0.01,Wunderground v.1.15,2013-11-24 03:23:00,
2013-11-23 22:28:00,29.8,18.7,29.86,NNW,336,5.0,6.0,63,0.00,,,0.01,Wunderground v.1.15,2013-11-24 03:28:00,
2013-11-23 22:34:00,29.8,18.4,29.86,NW,316,4.0,8.0,62,0.00,,,0.01,Wunderground v.1.15,2013-11-24 03:34:00,
2013-11-23 22:40:00,29.7,18.6,29.86,NNW,348,5.0,6.0,63,0.00,,,0.01,Wunderground v.1.15,2013-11-24 03:40:00,
2013-11-23 22:46:00,29.6,18.2,29.86,West,275,4.0,12.0,62,0.00,,,0.01,Wunderground v.1.15,2013-11-24 03:46:00,
2013-11-23 22:52:00,29.6,16.6,29.86,WNW,298,7.0,13.0,58,0.00,,,0.01,Wunderground v.1.15,2013-11-24 03:52:00,
2013-11-23 22:57:00,29.6,16.6,29.86,NE,43,7.0,8.0,58,0.00,,,0.01,Wunderground v.1.15,2013-11-24 03:57:00,
2013-11-23 23:02:00,29.5,16.9,29.86,NE,40,4.0,8.0,59,0.00,,,0.01,Wunderground v.1.15,2013-11-24 04:02:00,
2013-11-23 23:08:00,29.2,16.2,29.86,East,93,2.0,7.0,58,0.00,,,0.01,Wunderground v.1.15,2013-11-24 04:08:00,
2013-11-23 23:13:00,29.1,15.7,29.86,NNW,329,3.0,9.0,57,0.00,,,0.01,Wunderground v.1.15,2013-11-24 04:13:00,
2013-11-23 23:19:00,29.1,16.1,29.85,NW,309,3.0,5.0,58,0.00,,,0.01,Wunderground v.1.15,2013-11-24 04:19:00,
2013-11-23 23:25:00,28.9,16.7,29.86,NNW,332,2.0,2.0,60,0.00,,,0.01,Wunderground v.1.15,2013-11-24 04:25:00,
2013-11-23 23:31:00,28.8,17.0,29.86,NNE,29,2.0,8.0,61,0.00,,,0.01,Wunderground v.1.15,2013-11-24 04:31:00,
2013-11-23 23:37:00,28.6,17.2,29.86,NW,323,1.0,2.0,62,0.00,,,0.01,Wunderground v.1.15,2013-11-24 04:37:00,
2013-11-23 23:43:00,28.5,17.1,29.86,NW,315,1.0,2.0,62,0.00,,,0.01,Wunderground v.1.15,2013-11-24 04:43:00,
2013-11-23 23:48:00,28.4,16.7,29.86,NNW,331,1.0,6.0,61,0.00,,,0.01,Wunderground v.1.15,2013-11-24 04:48:00,
2013-11-23 23:54:00,28.4,15.9,29.86,NE,45,3.0,9.0,59,0.00,,,0.01,Wunderground v.1.15,2013-11-24 04:54:00,